sensor_id;sensor_type;location;lat;lon;timestamp;pressure;altitude;pressure_sealevel;temperature;humidity
75697;BME280;64312;44.738;20.612;2022-12-07T00:00:53;100349.00;;;7.14;82.96
75697;BME280;64312;44.738;20.612;2022-12-07T00:03:18;100349.50;;;7.17;83.23
75697;BME280;64312;44.738;20.612;2022-12-07T00:05:44;100344.81;;;7.11;82.88
75697;BME280;64312;44.738;20.612;2022-12-07T00:08:09;100357.53;;;7.17;82.73
75697;BME280;64312;44.738;20.612;2022-12-07T00:10:35;100361.03;;;7.18;82.78
75697;BME280;64312;44.738;20.612;2022-12-07T00:13:01;100354.69;;;7.19;82.99
75697;BME280;64312;44.738;20.612;2022-12-07T00:15:26;100349.50;;;7.17;82.67
75697;BME280;64312;44.738;20.612;2022-12-07T00:17:52;100348.66;;;7.17;82.41
75697;BME280;64312;44.738;20.612;2022-12-07T00:20:18;100348.84;;;7.15;82.70
75697;BME280;64312;44.738;20.612;2022-12-07T00:22:44;100340.97;;;7.14;82.61
75697;BME280;64312;44.738;20.612;2022-12-07T00:25:09;100347.31;;;7.13;82.41
75697;BME280;64312;44.738;20.612;2022-12-07T00:27:35;100350.84;;;7.13;82.69
75697;BME280;64312;44.738;20.612;2022-12-07T00:30:00;100343.81;;;7.12;82.66
75697;BME280;64312;44.738;20.612;2022-12-07T00:32:26;100333.13;;;7.04;82.68
75697;BME280;64312;44.738;20.612;2022-12-07T00:34:52;100354.03;;;7.09;82.54
75697;BME280;64312;44.738;20.612;2022-12-07T00:37:17;100342.66;;;7.06;82.57
75697;BME280;64312;44.738;20.612;2022-12-07T00:39:43;100339.31;;;7.04;82.56
75697;BME280;64312;44.738;20.612;2022-12-07T00:42:08;100342.00;;;7.04;82.25
75697;BME280;64312;44.738;20.612;2022-12-07T00:44:34;100348.34;;;7.03;81.85
75697;BME280;64312;44.738;20.612;2022-12-07T00:47:00;100341.66;;;6.99;82.34
75697;BME280;64312;44.738;20.612;2022-12-07T00:49:25;100343.16;;;7.02;82.39
75697;BME280;64312;44.738;20.612;2022-12-07T00:51:51;100346.69;;;7.02;82.14
75697;BME280;64312;44.738;20.612;2022-12-07T00:54:17;100339.97;;;6.98;82.33
75697;BME280;64312;44.738;20.612;2022-12-07T00:56:42;100343.66;;;7.05;81.90
75697;BME280;64312;44.738;20.612;2022-12-07T00:59:12;100340.97;;;7.05;82.05
75697;BME280;64312;44.738;20.612;2022-12-07T01:01:39;100341.34;;;7.02;81.76
75697;BME280;64312;44.738;20.612;2022-12-07T01:04:05;100344.66;;;7.04;82.31
75697;BME280;64312;44.738;20.612;2022-12-07T01:06:31;100339.63;;;7.01;82.15
75697;BME280;64312;44.738;20.612;2022-12-07T01:08:57;100337.81;;;7.02;82.41
75697;BME280;64312;44.738;20.612;2022-12-07T01:11:26;100323.91;;;6.98;81.92
75697;BME280;64312;44.738;20.612;2022-12-07T01:13:54;100330.78;;;7.01;82.23
75697;BME280;64312;44.738;20.612;2022-12-07T01:16:21;100338.78;;;7.01;82.56
75697;BME280;64312;44.738;20.612;2022-12-07T01:18:49;100327.78;;;6.96;82.49
75697;BME280;64312;44.738;20.612;2022-12-07T01:21:18;100338.31;;;6.97;82.18
75697;BME280;64312;44.738;20.612;2022-12-07T01:23:44;100327.44;;;6.99;81.79
75697;BME280;64312;44.738;20.612;2022-12-07T01:26:12;100332.97;;;6.97;81.43
75697;BME280;64312;44.738;20.612;2022-12-07T01:28:38;100332.28;;;6.95;82.03
75697;BME280;64312;44.738;20.612;2022-12-07T01:31:06;100330.59;;;6.94;82.43
75697;BME280;64312;44.738;20.612;2022-12-07T01:33:35;100332.44;;;6.94;81.59
75697;BME280;64312;44.738;20.612;2022-12-07T01:36:05;100330.59;;;6.94;81.42
75697;BME280;64312;44.738;20.612;2022-12-07T01:38:31;100318.22;;;6.93;81.43
75697;BME280;64312;44.738;20.612;2022-12-07T01:40:58;100331.28;;;6.96;81.58
75697;BME280;64312;44.738;20.612;2022-12-07T01:43:26;100330.47;;;6.96;81.93
75697;BME280;64312;44.738;20.612;2022-12-07T01:45:53;100324.25;;;6.95;81.64
75697;BME280;64312;44.738;20.612;2022-12-07T01:48:22;100321.56;;;6.95;81.59
75697;BME280;64312;44.738;20.612;2022-12-07T01:50:51;100327.94;;;6.94;81.39
75697;BME280;64312;44.738;20.612;2022-12-07T01:53:19;100326.91;;;6.95;81.43
75697;BME280;64312;44.738;20.612;2022-12-07T01:55:47;100319.25;;;6.92;81.45
75697;BME280;64312;44.738;20.612;2022-12-07T01:58:16;100309.38;;;6.93;81.27
75697;BME280;64312;44.738;20.612;2022-12-07T02:00:42;100296.81;;;6.93;81.46
75697;BME280;64312;44.738;20.612;2022-12-07T02:03:41;100289.97;;;6.91;81.85
75697;BME280;64312;44.738;20.612;2022-12-07T02:06:08;100299.03;;;6.90;81.64
75697;BME280;64312;44.738;20.612;2022-12-07T02:08:35;100305.19;;;6.90;81.36
75697;BME280;64312;44.738;20.612;2022-12-07T02:11:02;100296.84;;;6.85;81.24
75697;BME280;64312;44.738;20.612;2022-12-07T02:13:31;100295.16;;;6.84;81.48
75697;BME280;64312;44.738;20.612;2022-12-07T02:21:45;100284.63;;;6.74;80.81
75697;BME280;64312;44.738;20.612;2022-12-07T02:30:10;100293.66;;;6.73;81.73
75697;BME280;64312;44.738;20.612;2022-12-07T02:32:59;100282.78;;;6.75;81.45
75697;BME280;64312;44.738;20.612;2022-12-07T02:36:03;100283.47;;;6.77;81.64
75697;BME280;64312;44.738;20.612;2022-12-07T02:41:25;100290.16;;;6.73;81.84
75697;BME280;64312;44.738;20.612;2022-12-07T02:43:54;100290.31;;;6.71;82.30
75697;BME280;64312;44.738;20.612;2022-12-07T02:46:25;100277.63;;;6.65;82.20
75697;BME280;64312;44.738;20.612;2022-12-07T02:48:54;100279.94;;;6.60;82.02
75697;BME280;64312;44.738;20.612;2022-12-07T02:51:21;100285.47;;;6.67;81.78
75697;BME280;64312;44.738;20.612;2022-12-07T02:53:47;100283.63;;;6.67;82.08
75697;BME280;64312;44.738;20.612;2022-12-07T02:56:30;100270.25;;;6.67;81.99
75697;BME280;64312;44.738;20.612;2022-12-07T03:07:21;100269.75;;;6.72;82.15
75697;BME280;64312;44.738;20.612;2022-12-07T03:13:03;100270.59;;;6.72;82.30
75697;BME280;64312;44.738;20.612;2022-12-07T03:15:26;100271.94;;;6.76;82.06
75697;BME280;64312;44.738;20.612;2022-12-07T03:17:55;100267.41;;;6.77;82.27
75697;BME280;64312;44.738;20.612;2022-12-07T03:20:25;100267.06;;;6.80;81.94
75697;BME280;64312;44.738;20.612;2022-12-07T03:22:52;100273.91;;;6.83;82.05
75697;BME280;64312;44.738;20.612;2022-12-07T03:25:20;100270.41;;;6.82;81.67
75697;BME280;64312;44.738;20.612;2022-12-07T03:27:50;100269.25;;;6.85;81.88
75697;BME280;64312;44.738;20.612;2022-12-07T03:30:20;100259.38;;;6.85;81.98
75697;BME280;64312;44.738;20.612;2022-12-07T03:32:58;100250.69;;;6.83;81.48
75697;BME280;64312;44.738;20.612;2022-12-07T03:35:36;100248.00;;;6.83;81.91
75697;BME280;64312;44.738;20.612;2022-12-07T03:38:31;100248.84;;;6.84;81.14
75697;BME280;64312;44.738;20.612;2022-12-07T03:41:09;100246.00;;;6.85;81.97
75697;BME280;64312;44.738;20.612;2022-12-07T03:43:37;100237.97;;;6.85;81.97
75697;BME280;64312;44.738;20.612;2022-12-07T03:49:04;100234.47;;;6.85;81.91
75697;BME280;64312;44.738;20.612;2022-12-07T03:54:21;100230.59;;;6.87;82.06
75697;BME280;64312;44.738;20.612;2022-12-07T03:56:49;100225.75;;;6.83;81.70
75697;BME280;64312;44.738;20.612;2022-12-07T03:59:16;100227.25;;;6.85;81.94
75697;BME280;64312;44.738;20.612;2022-12-07T04:01:44;100220.09;;;6.77;81.98
75697;BME280;64312;44.738;20.612;2022-12-07T04:04:09;100227.25;;;6.85;81.83
75697;BME280;64312;44.738;20.612;2022-12-07T04:06:35;100221.25;;;6.83;81.74
75697;BME280;64312;44.738;20.612;2022-12-07T04:09:01;100210.56;;;6.75;82.26
75697;BME280;64312;44.738;20.612;2022-12-07T04:11:27;100209.72;;;6.74;81.92
75697;BME280;64312;44.738;20.612;2022-12-07T04:13:52;100226.94;;;6.80;82.02
75697;BME280;64312;44.738;20.612;2022-12-07T04:16:37;100229.13;;;6.76;82.11
75697;BME280;64312;44.738;20.612;2022-12-07T04:19:02;100236.16;;;6.77;82.39
75697;BME280;64312;44.738;20.612;2022-12-07T04:21:28;100227.44;;;6.75;81.81
75697;BME280;64312;44.738;20.612;2022-12-07T04:23:54;100224.28;;;6.72;82.43
75697;BME280;64312;44.738;20.612;2022-12-07T04:26:19;100224.94;;;6.74;81.98
75697;BME280;64312;44.738;20.612;2022-12-07T04:28:45;100230.78;;;6.77;82.15
75697;BME280;64312;44.738;20.612;2022-12-07T04:31:10;100220.41;;;6.74;81.94
75697;BME280;64312;44.738;20.612;2022-12-07T04:33:36;100211.38;;;6.75;82.24
75697;BME280;64312;44.738;20.612;2022-12-07T04:36:02;100204.38;;;6.74;82.15
75697;BME280;64312;44.738;20.612;2022-12-07T04:38:28;100197.16;;;6.75;82.08
75697;BME280;64312;44.738;20.612;2022-12-07T04:40:53;100179.81;;;6.71;81.46
75697;BME280;64312;44.738;20.612;2022-12-07T04:43:19;100187.16;;;6.69;81.60
75697;BME280;64312;44.738;20.612;2022-12-07T04:45:46;100184.66;;;6.67;82.07
75697;BME280;64312;44.738;20.612;2022-12-07T04:48:12;100187.31;;;6.67;81.89
75697;BME280;64312;44.738;20.612;2022-12-07T04:50:38;100186.16;;;6.70;81.65
75697;BME280;64312;44.738;20.612;2022-12-07T04:53:04;100192.19;;;6.72;81.63
75697;BME280;64312;44.738;20.612;2022-12-07T04:55:29;100200.19;;;6.72;82.27
75697;BME280;64312;44.738;20.612;2022-12-07T04:57:55;100207.03;;;6.74;81.87
75697;BME280;64312;44.738;20.612;2022-12-07T05:00:20;100207.72;;;6.76;82.36
75697;BME280;64312;44.738;20.612;2022-12-07T05:02:46;100207.38;;;6.79;81.99
75697;BME280;64312;44.738;20.612;2022-12-07T05:05:12;100198.50;;;6.79;81.78
75697;BME280;64312;44.738;20.612;2022-12-07T05:07:37;100201.19;;;6.79;81.71
75697;BME280;64312;44.738;20.612;2022-12-07T05:10:04;100189.84;;;6.77;81.74
75697;BME280;64312;44.738;20.612;2022-12-07T05:12:30;100187.16;;;6.77;81.61
75697;BME280;64312;44.738;20.612;2022-12-07T05:14:55;100181.94;;;6.75;81.68
75697;BME280;64312;44.738;20.612;2022-12-07T05:17:21;100181.66;;;6.70;82.18
75697;BME280;64312;44.738;20.612;2022-12-07T05:19:47;100181.28;;;6.73;81.42
75697;BME280;64312;44.738;20.612;2022-12-07T05:22:12;100166.44;;;6.63;82.08
75697;BME280;64312;44.738;20.612;2022-12-07T05:24:38;100185.47;;;6.68;81.52
75697;BME280;64312;44.738;20.612;2022-12-07T05:27:04;100186.16;;;6.70;82.27
75697;BME280;64312;44.738;20.612;2022-12-07T05:29:29;100178.97;;;6.70;82.34
75697;BME280;64312;44.738;20.612;2022-12-07T05:31:55;100149.06;;;6.59;81.92
75697;BME280;64312;44.738;20.612;2022-12-07T05:34:21;100162.41;;;6.67;81.56
75697;BME280;64312;44.738;20.612;2022-12-07T05:36:47;100158.72;;;6.68;82.37
75697;BME280;64312;44.738;20.612;2022-12-07T05:39:12;100156.41;;;6.65;82.24
75697;BME280;64312;44.738;20.612;2022-12-07T05:41:38;100158.91;;;6.66;81.97
75697;BME280;64312;44.738;20.612;2022-12-07T05:44:22;100162.09;;;6.70;82.20
75697;BME280;64312;44.738;20.612;2022-12-07T05:46:48;100166.59;;;6.69;81.99
75697;BME280;64312;44.738;20.612;2022-12-07T05:49:13;100165.94;;;6.67;82.16
75697;BME280;64312;44.738;20.612;2022-12-07T05:51:39;100184.47;;;6.69;82.07
75697;BME280;64312;44.738;20.612;2022-12-07T05:54:05;100186.31;;;6.68;81.67
75697;BME280;64312;44.738;20.612;2022-12-07T05:56:30;100179.81;;;6.71;82.26
75697;BME280;64312;44.738;20.612;2022-12-07T05:58:56;100164.75;;;6.62;81.46
75697;BME280;64312;44.738;20.612;2022-12-07T06:01:40;100169.63;;;6.66;81.42
75697;BME280;64312;44.738;20.612;2022-12-07T06:04:06;100177.13;;;6.71;81.90
75697;BME280;64312;44.738;20.612;2022-12-07T06:06:32;100171.59;;;6.72;81.87
75697;BME280;64312;44.738;20.612;2022-12-07T06:08:57;100165.25;;;6.73;81.65
75697;BME280;64312;44.738;20.612;2022-12-07T06:11:23;100172.63;;;6.71;81.56
75697;BME280;64312;44.738;20.612;2022-12-07T06:14:07;100176.97;;;6.72;82.00
75697;BME280;64312;44.738;20.612;2022-12-07T06:16:33;100182.78;;;6.76;81.76
75697;BME280;64312;44.738;20.612;2022-12-07T06:18:59;100172.25;;;6.74;81.69
75697;BME280;64312;44.738;20.612;2022-12-07T06:21:24;100171.44;;;6.74;81.58
75697;BME280;64312;44.738;20.612;2022-12-07T06:23:52;100173.09;;;6.75;81.84
75697;BME280;64312;44.738;20.612;2022-12-07T06:26:17;100174.63;;;6.77;81.72
75697;BME280;64312;44.738;20.612;2022-12-07T06:28:43;100175.63;;;6.76;81.95
75697;BME280;64312;44.738;20.612;2022-12-07T06:31:09;100172.78;;;6.70;81.74
75697;BME280;64312;44.738;20.612;2022-12-07T06:33:35;100187.47;;;6.74;82.02
75697;BME280;64312;44.738;20.612;2022-12-07T06:36:00;100181.97;;;6.67;82.38
75697;BME280;64312;44.738;20.612;2022-12-07T06:38:26;100184.66;;;6.67;82.07
75697;BME280;64312;44.738;20.612;2022-12-07T06:40:51;100191.34;;;6.63;81.55
75697;BME280;64312;44.738;20.612;2022-12-07T06:43:17;100189.66;;;6.62;81.94
75697;BME280;64312;44.738;20.612;2022-12-07T06:45:43;100187.00;;;6.62;82.30
75697;BME280;64312;44.738;20.612;2022-12-07T06:48:08;100178.66;;;6.57;82.19
75697;BME280;64312;44.738;20.612;2022-12-07T06:50:34;100181.00;;;6.60;82.19
75697;BME280;64312;44.738;20.612;2022-12-07T06:52:59;100178.97;;;6.62;82.13
75697;BME280;64312;44.738;20.612;2022-12-07T06:55:25;100176.47;;;6.61;82.60
75697;BME280;64312;44.738;20.612;2022-12-07T06:57:51;100165.94;;;6.59;82.43
75697;BME280;64312;44.738;20.612;2022-12-07T07:00:17;100165.13;;;6.59;82.00
75697;BME280;64312;44.738;20.612;2022-12-07T07:02:43;100150.59;;;6.53;82.50
75697;BME280;64312;44.738;20.612;2022-12-07T07:05:08;100149.75;;;6.53;82.43
75697;BME280;64312;44.738;20.612;2022-12-07T07:07:34;100158.13;;;6.41;82.52
75697;BME280;64312;44.738;20.612;2022-12-07T07:09:59;100166.50;;;6.38;82.78
75697;BME280;64312;44.738;20.612;2022-12-07T07:12:25;100164.31;;;6.34;82.65
75697;BME280;64312;44.738;20.612;2022-12-07T07:14:51;100158.13;;;6.33;82.96
75697;BME280;64312;44.738;20.612;2022-12-07T07:17:16;100168.81;;;6.41;83.09
75697;BME280;64312;44.738;20.612;2022-12-07T07:19:42;100158.94;;;6.42;83.64
75697;BME280;64312;44.738;20.612;2022-12-07T07:22:08;100164.47;;;6.40;83.15
75697;BME280;64312;44.738;20.612;2022-12-07T07:24:34;100175.16;;;6.40;83.27
75697;BME280;64312;44.738;20.612;2022-12-07T07:26:59;100172.50;;;6.40;82.78
75697;BME280;64312;44.738;20.612;2022-12-07T07:29:25;100187.53;;;6.41;83.13
75697;BME280;64312;44.738;20.612;2022-12-07T07:31:51;100184.19;;;6.39;83.51
75697;BME280;64312;44.738;20.612;2022-12-07T07:34:17;100192.03;;;6.41;83.37
75697;BME280;64312;44.738;20.612;2022-12-07T07:36:43;100189.69;;;6.46;83.56
75697;BME280;64312;44.738;20.612;2022-12-07T07:39:09;100201.22;;;6.46;83.46
75697;BME280;64312;44.738;20.612;2022-12-07T07:41:37;100196.22;;;6.43;83.70
75697;BME280;64312;44.738;20.612;2022-12-07T07:44:03;100196.22;;;6.43;83.62
75697;BME280;64312;44.738;20.612;2022-12-07T07:46:29;100199.38;;;6.47;83.94
75697;BME280;64312;44.738;20.612;2022-12-07T07:48:55;100193.22;;;6.46;83.76
75697;BME280;64312;44.738;20.612;2022-12-07T07:51:20;100168.16;;;6.39;83.94
75697;BME280;64312;44.738;20.612;2022-12-07T07:53:46;100166.13;;;6.41;83.95
75697;BME280;64312;44.738;20.612;2022-12-07T07:56:12;100173.16;;;6.50;84.18
75697;BME280;64312;44.738;20.612;2022-12-07T07:58:37;100172.47;;;6.48;83.71
75697;BME280;64312;44.738;20.612;2022-12-07T08:01:07;100186.84;;;6.47;84.28
75697;BME280;64312;44.738;20.612;2022-12-07T08:03:34;100189.19;;;6.42;83.77
75697;BME280;64312;44.738;20.612;2022-12-07T08:05:59;100196.03;;;6.37;83.77
75697;BME280;64312;44.738;20.612;2022-12-07T08:08:26;100195.38;;;6.35;84.23
75697;BME280;64312;44.738;20.612;2022-12-07T08:10:52;100194.56;;;6.34;83.52
75697;BME280;64312;44.738;20.612;2022-12-07T08:13:17;100205.91;;;6.36;83.89
75697;BME280;64312;44.738;20.612;2022-12-07T08:15:45;100198.56;;;6.38;83.41
75697;BME280;64312;44.738;20.612;2022-12-07T08:18:11;100196.03;;;6.37;83.86
75697;BME280;64312;44.738;20.612;2022-12-07T08:20:38;100195.72;;;6.40;84.11
75697;BME280;64312;44.738;20.612;2022-12-07T08:23:05;100191.38;;;6.39;84.21
75697;BME280;64312;44.738;20.612;2022-12-07T08:25:31;100210.09;;;6.47;84.23
75697;BME280;64312;44.738;20.612;2022-12-07T08:27:57;100212.94;;;6.54;84.54
75697;BME280;64312;44.738;20.612;2022-12-07T08:30:23;100218.78;;;6.57;83.85
75697;BME280;64312;44.738;20.612;2022-12-07T08:32:49;100224.63;;;6.61;84.06
75697;BME280;64312;44.738;20.612;2022-12-07T08:35:16;100223.59;;;6.62;83.93
75697;BME280;64312;44.738;20.612;2022-12-07T08:37:41;100226.63;;;6.67;83.57
75697;BME280;64312;44.738;20.612;2022-12-07T08:40:08;100223.13;;;6.66;83.41
75697;BME280;64312;44.738;20.612;2022-12-07T08:42:35;100218.94;;;6.72;83.83
75697;BME280;64312;44.738;20.612;2022-12-07T08:45:07;100224.75;;;6.75;83.20
75697;BME280;64312;44.738;20.612;2022-12-07T08:47:34;100216.41;;;6.78;83.76
75697;BME280;64312;44.738;20.612;2022-12-07T08:50:04;100225.91;;;6.81;83.30
75697;BME280;64312;44.738;20.612;2022-12-07T08:52:31;100227.13;;;6.78;82.96
75697;BME280;64312;44.738;20.612;2022-12-07T08:54:58;100226.47;;;6.76;83.17
75697;BME280;64312;44.738;20.612;2022-12-07T08:57:27;100231.94;;;6.75;83.07
75697;BME280;64312;44.738;20.612;2022-12-07T08:59:53;100220.09;;;6.77;83.23
75697;BME280;64312;44.738;20.612;2022-12-07T09:02:19;100222.09;;;6.75;82.78
75697;BME280;64312;44.738;20.612;2022-12-07T09:04:45;100222.25;;;6.74;82.71
75697;BME280;64312;44.738;20.612;2022-12-07T09:07:10;100212.75;;;6.71;82.58
75697;BME280;64312;44.738;20.612;2022-12-07T09:09:36;100222.59;;;6.79;83.43
75697;BME280;64312;44.738;20.612;2022-12-07T09:12:02;100225.28;;;6.79;83.02
75697;BME280;64312;44.738;20.612;2022-12-07T09:14:27;100225.75;;;6.83;83.12
75697;BME280;64312;44.738;20.612;2022-12-07T09:16:53;100217.22;;;6.87;82.97
75697;BME280;64312;44.738;20.612;2022-12-07T09:19:18;100224.75;;;6.92;82.86
75697;BME280;64312;44.738;20.612;2022-12-07T09:21:44;100222.91;;;6.92;82.51
75697;BME280;64312;44.738;20.612;2022-12-07T09:24:11;100232.41;;;6.95;83.09
75697;BME280;64312;44.738;20.612;2022-12-07T09:26:37;100234.44;;;6.93;82.73
75697;BME280;64312;44.738;20.612;2022-12-07T09:29:04;100237.28;;;6.91;83.06
75697;BME280;64312;44.738;20.612;2022-12-07T09:31:30;100217.56;;;6.92;82.45
75697;BME280;64312;44.738;20.612;2022-12-07T09:33:58;100211.00;;;6.95;82.11
75697;BME280;64312;44.738;20.612;2022-12-07T09:36:24;100203.47;;;6.98;82.25
75697;BME280;64312;44.738;20.612;2022-12-07T09:38:51;100200.13;;;7.04;82.57
75697;BME280;64312;44.738;20.612;2022-12-07T09:41:17;100195.09;;;7.10;82.98
75697;BME280;64312;44.738;20.612;2022-12-07T09:43:43;100197.91;;;7.16;81.85
75697;BME280;64312;44.738;20.612;2022-12-07T09:46:13;100195.56;;;7.21;82.38
75697;BME280;64312;44.738;20.612;2022-12-07T09:48:42;100192.88;;;7.21;82.44
75697;BME280;64312;44.738;20.612;2022-12-07T09:51:22;100191.03;;;7.22;82.19
75697;BME280;64312;44.738;20.612;2022-12-07T09:53:50;100184.00;;;7.21;81.97
75697;BME280;64312;44.738;20.612;2022-12-07T09:56:17;100174.28;;;7.20;82.51
75697;BME280;64312;44.738;20.612;2022-12-07T09:58:43;100167.22;;;7.27;82.37
75697;BME280;64312;44.738;20.612;2022-12-07T10:01:15;100170.22;;;7.32;82.52
75697;BME280;64312;44.738;20.612;2022-12-07T10:03:54;100164.00;;;7.40;82.34
75697;BME280;64312;44.738;20.612;2022-12-07T10:06:20;100165.97;;;7.46;82.21
75697;BME280;64312;44.738;20.612;2022-12-07T10:08:46;100167.47;;;7.48;81.88
75697;BME280;64312;44.738;20.612;2022-12-07T10:11:12;100169.47;;;7.46;81.70
75697;BME280;64312;44.738;20.612;2022-12-07T10:13:45;100172.34;;;7.45;81.85
75697;BME280;64312;44.738;20.612;2022-12-07T10:16:39;100179.06;;;7.41;81.42
75697;BME280;64312;44.738;20.612;2022-12-07T10:19:32;100182.28;;;7.36;81.77
75697;BME280;64312;44.738;20.612;2022-12-07T10:22:11;100178.25;;;7.32;81.46
75697;BME280;64312;44.738;20.612;2022-12-07T10:24:39;100179.78;;;7.35;81.90
75697;BME280;64312;44.738;20.612;2022-12-07T10:27:31;100178.91;;;7.34;81.05
75697;BME280;64312;44.738;20.612;2022-12-07T10:29:58;100185.13;;;7.35;81.53
75697;BME280;64312;44.738;20.612;2022-12-07T10:32:35;100177.44;;;7.31;81.53
75697;BME280;64312;44.738;20.612;2022-12-07T10:37:49;100179.63;;;7.28;81.88
75697;BME280;64312;44.738;20.612;2022-12-07T10:40:44;100180.59;;;7.35;82.39
75697;BME280;64312;44.738;20.612;2022-12-07T10:53:28;100176.09;;;7.67;81.57
75697;BME280;64312;44.738;20.612;2022-12-07T11:11:38;100155.59;;;8.20;80.95
75697;BME280;64312;44.738;20.612;2022-12-07T11:14:31;100131.81;;;8.17;82.15
75697;BME280;64312;44.738;20.612;2022-12-07T11:20:49;100143.59;;;8.30;80.50
75697;BME280;64312;44.738;20.612;2022-12-07T11:26:34;100150.94;;;8.36;80.50
75697;BME280;64312;44.738;20.612;2022-12-07T11:29:21;100156.84;;;8.32;80.41
75697;BME280;64312;44.738;20.612;2022-12-07T11:34:48;100155.59;;;8.20;80.82
75697;BME280;64312;44.738;20.612;2022-12-07T11:37:21;100148.28;;;8.13;81.01
75697;BME280;64312;44.738;20.612;2022-12-07T11:39:59;100149.63;;;8.09;80.69
75697;BME280;64312;44.738;20.612;2022-12-07T11:42:33;100143.25;;;8.10;80.38
75697;BME280;64312;44.738;20.612;2022-12-07T11:45:17;100142.81;;;8.07;81.15
75697;BME280;64312;44.738;20.612;2022-12-07T11:47:46;100135.66;;;7.99;81.65
75697;BME280;64312;44.738;20.612;2022-12-07T11:50:24;100148.06;;;8.00;80.39
75697;BME280;64312;44.738;20.612;2022-12-07T11:53:03;100149.22;;;7.98;80.40
75697;BME280;64312;44.738;20.612;2022-12-07T11:55:50;100149.41;;;7.96;80.68
75697;BME280;64312;44.738;20.612;2022-12-07T12:06:29;100146.69;;;7.81;81.19
75697;BME280;64312;44.738;20.612;2022-12-07T12:09:05;100149.69;;;7.78;81.38
75697;BME280;64312;44.738;20.612;2022-12-07T12:14:37;100138.69;;;7.73;80.89
75697;BME280;64312;44.738;20.612;2022-12-07T12:20:22;100135.16;;;7.73;81.81
75697;BME280;64312;44.738;20.612;2022-12-07T12:23:00;100128.81;;;7.74;81.62
75697;BME280;64312;44.738;20.612;2022-12-07T12:25:37;100127.28;;;7.79;82.21
75697;BME280;64312;44.738;20.612;2022-12-07T12:28:04;100121.53;;;7.82;81.89
75697;BME280;64312;44.738;20.612;2022-12-07T12:30:34;100117.31;;;7.88;81.96
75697;BME280;64312;44.738;20.612;2022-12-07T12:33:27;100118.06;;;7.97;81.49
75697;BME280;64312;44.738;20.612;2022-12-07T12:36:27;100121.88;;;8.02;81.81
75697;BME280;64312;44.738;20.612;2022-12-07T12:39:15;100112.63;;;8.05;81.68
75697;BME280;64312;44.738;20.612;2022-12-07T12:51:52;100116.00;;;8.07;81.11
75697;BME280;64312;44.738;20.612;2022-12-07T12:54:22;100113.31;;;8.07;81.69
75697;BME280;64312;44.738;20.612;2022-12-07T12:59:57;100125.22;;;8.04;81.00
75697;BME280;64312;44.738;20.612;2022-12-07T13:02:29;100127.25;;;8.02;81.46
75697;BME280;64312;44.738;20.612;2022-12-07T13:18:36;100146.28;;;7.93;81.59
75697;BME280;64312;44.738;20.612;2022-12-07T13:26:41;100150.63;;;7.94;81.62
75697;BME280;64312;44.738;20.612;2022-12-07T13:31:49;100157.44;;;7.96;81.38
75697;BME280;64312;44.738;20.612;2022-12-07T13:37:02;100165.69;;;7.95;82.04
75697;BME280;64312;44.738;20.612;2022-12-07T13:39:34;100160.31;;;7.95;81.01
75697;BME280;64312;44.738;20.612;2022-12-07T13:42:08;100160.97;;;7.97;81.72
75697;BME280;64312;44.738;20.612;2022-12-07T13:44:40;100152.47;;;7.93;81.50
75697;BME280;64312;44.738;20.612;2022-12-07T13:49:50;100166.03;;;7.92;81.14
75697;BME280;64312;44.738;20.612;2022-12-07T13:52:18;100168.56;;;7.85;81.85
75697;BME280;64312;44.738;20.612;2022-12-07T13:54:59;100162.63;;;7.75;81.00
75697;BME280;64312;44.738;20.612;2022-12-07T13:57:27;100164.47;;;7.74;81.84
75697;BME280;64312;44.738;20.612;2022-12-07T13:59:54;100170.19;;;7.71;81.77
75697;BME280;64312;44.738;20.612;2022-12-07T14:02:31;100167.19;;;7.66;82.09
75697;BME280;64312;44.738;20.612;2022-12-07T14:07:59;100159.00;;;7.68;82.33
75697;BME280;64312;44.738;20.612;2022-12-07T14:10:31;100158.63;;;7.71;82.62
75697;BME280;64312;44.738;20.612;2022-12-07T14:12:59;100154.09;;;7.71;82.22
75697;BME280;64312;44.738;20.612;2022-12-07T14:15:31;100147.59;;;7.66;82.23
75697;BME280;64312;44.738;20.612;2022-12-07T14:17:59;100160.47;;;7.70;82.41
75697;BME280;64312;44.738;20.612;2022-12-07T14:23:00;100165.38;;;7.67;82.48
75697;BME280;64312;44.738;20.612;2022-12-07T14:25:49;100167.38;;;7.65;82.21
75697;BME280;64312;44.738;20.612;2022-12-07T14:28:44;100160.22;;;7.57;82.09
75697;BME280;64312;44.738;20.612;2022-12-07T14:31:16;100164.38;;;7.59;82.19
75697;BME280;64312;44.738;20.612;2022-12-07T14:33:42;100167.44;;;7.56;82.28
75697;BME280;64312;44.738;20.612;2022-12-07T14:36:13;100173.63;;;7.57;82.23
75697;BME280;64312;44.738;20.612;2022-12-07T14:38:40;100175.47;;;7.56;82.03
75697;BME280;64312;44.738;20.612;2022-12-07T14:41:12;100181.84;;;7.55;82.88
75697;BME280;64312;44.738;20.612;2022-12-07T14:43:57;100177.66;;;7.53;82.26
75697;BME280;64312;44.738;20.612;2022-12-07T14:46:23;100181.72;;;7.49;82.28
75697;BME280;64312;44.738;20.612;2022-12-07T14:48:49;100192.59;;;7.47;82.19
75697;BME280;64312;44.738;20.612;2022-12-07T14:51:15;100188.22;;;7.46;82.07
75697;BME280;64312;44.738;20.612;2022-12-07T14:53:48;100191.59;;;7.48;82.90
75697;BME280;64312;44.738;20.612;2022-12-07T14:56:15;100194.41;;;7.47;82.91
75697;BME280;64312;44.738;20.612;2022-12-07T14:58:41;100193.31;;;7.41;82.31
75697;BME280;64312;44.738;20.612;2022-12-07T15:01:06;100195.78;;;7.43;82.05
75697;BME280;64312;44.738;20.612;2022-12-07T15:03:32;100201.34;;;7.41;82.11
75697;BME280;64312;44.738;20.612;2022-12-07T15:06:01;100203.19;;;7.41;82.49
75697;BME280;64312;44.738;20.612;2022-12-07T15:08:26;100212.19;;;7.40;81.55
75697;BME280;64312;44.738;20.612;2022-12-07T15:10:52;100210.56;;;7.30;81.93